x

Boston 16 Nm East Of Boston, Ma (44013) Wave Buoy

7:50am - Fri 1st Aug 2014 All times are EDT. -4 hours from GMT.

  • Sig Wave height 1.3ft
  • Swell Direction
  • Peak Period 8s
  • Average Period 6s
  • Wind
    4mph
  • Sea Temp 64°f
  • Air Temp 65°f
  • Sea Pressure 1023.6mb
  • Boston 16 Nm East Of Boston, Ma
  • Boston 16 Nm East Of Boston, Ma

More Historic Weather Station data

Upgrade to MSW Pro to gain access to the past 30 days of data for over 8000 Wavebouys and Weather Stations around the globe.

Join Pro

Comparision Forecast

View Surf forecast
   
Fri 08/01 7:50am 1.3ft 8s 6s 4
mph
1023.6mb 64f 65f
6:50am 1.3ft 8s 5s 4
mph
1023mb 64f 65f
5:50am 1.3ft 8s 5s 4
mph
1022.5mb 64f 64f
4:50am 1.3ft 8s 5s 4
mph
1022.2mb 64f 64f
3:50am 1.6ft 8s 5s 7
mph
1022mb 64f 64f
2:50am 1.6ft 9s 5s 7
mph
1021.8mb 64f 64f
1:50am 2ft 8s 5s 7
mph
1021.8mb 64f 64f
12:50am 2ft 6s 5s 4 7 mph 1022mb 65f 64f
Thu 07/31 11:50pm 2ft 8s 5s 7 9 mph 1022mb 65f 65f
10:50pm 2ft 8s 5s 9 11 mph 1021.7mb 65f 66f
9:50pm 2.5ft 8s 5s 11 13 mph 1021.6mb 65f 67f
8:50pm 2ft 8s 4s 11 13 mph 1020.9mb 65f 68f
7:50pm 2.5ft 9s 4s 16 18 mph 1020.1mb 65f 70f
6:50pm 2.5ft 9s 4s 11 13 mph 1019.6mb 64f 68f
5:50pm 2.5ft 9s 4s 16 18 mph 1018.9mb 64f 69f
4:50pm 2.5ft 3s 4s 18 20 mph 1018.6mb 64f 69f
3:50pm 2.5ft 3s 4s 16 18 mph 1018.8mb 64f 68f
2:50pm 2.5ft 9s 4s 16 18 mph 1018.9mb 64f 68f
1:50pm 2.5ft 8s 4s 16 18 mph 1018.9mb 64f 68f
12:50pm 2.5ft 7s 4s 16 18 mph 1019.3mb 65f 68f
11:50am 2ft 8s 5s 11 13 mph 1019.6mb 65f 67f
10:50am 2ft 8s 7s 11 13 mph 1019.7mb 64f 65f
9:50am 2.5ft 9s 7s 7 9 mph 1019.8mb 64f 65f
8:50am 2ft 9s 7s 7
mph
1019.9mb 64f 64f
7:50am 2ft 9s 7s 7 9 mph 1019.8mb 64f 63f
6:50am 2ft 8s 7s 7 9 mph 1019.3mb 64f 63f
5:50am 2ft 8s 7s 7 9 mph 1018.8mb 64f 63f
4:50am 2ft 8s 7s 9 11 mph 1018.3mb 64f 64f
3:50am 2ft 8s 7s 9 11 mph 1017.9mb 64f 64f
2:50am 2.5ft 9s 7s 7 9 mph 1017.6mb 64f 64f
1:50am 2.5ft 9s 7s 7 9 mph 1017.6mb 64f 64f
12:50am 2.5ft 9s 7s 7 9 mph 1017.6mb 64f 65f
Wed 07/30 11:50pm 2.5ft 9s 7s 9 11 mph 1017.6mb 65f 65f
10:50pm 2.5ft 9s 7s 11 13 mph 1017.3mb 65f 66f
9:50pm 2ft 8s 7s 9
mph
1017.2mb 65f 67f
8:50pm 1.6ft 9s 7s 7
mph
1017mb 65f 67f
7:50pm 1.6ft 8s 7s 7
mph
1016.5mb 66f 67f
6:50pm 1.6ft 8s 6s 7
mph
1016.2mb 66f 67f
5:50pm 1.6ft 9s 6s 9
mph
1015.8mb 66f 68f
4:50pm 1.6ft 9s 6s 9 11 mph 1015.5mb 67f 68f
3:50pm 1.6ft 8s 6s 7 9 mph 1015.3mb 67f 69f
2:50pm 1.6ft 8s 6s 7
mph
1015.5mb 66f 68f
1:50pm 2ft 9s 6s 7 9 mph 1015.5mb 67f 67f
12:50pm 2ft 9s 6s 7 9 mph 1015.9mb 67f 66f
11:50am 2ft 9s 6s 2 4 mph 1016.3mb 66f 65f
10:50am 2.5ft 7s 6s 2
mph
1016.4mb 64f 64f
9:50am 2.5ft 9s 7s 4
mph
1016.3mb 64f 63f
8:50am 2.5ft 8s 7s 7
mph
1016.4mb 64f 63f
7:50am 2ft 8s 7s 7 9 mph 1016.2mb 64f 63f
6:50am 2ft 9s 7s 4 7 mph 1015.8mb 64f 63f
5:50am 2ft 8s 7s 4 7 mph 1015.2mb 64f 63f
4:50am 1.6ft 8s 6s 7
mph
1014.6mb 64f 63f
3:50am 1.6ft 8s 6s 7
mph
1014.1mb 64f 64f
2:50am 1.6ft 9s 5s 4 7 mph 1014.1mb 64f 64f
1:50am 1.6ft 9s 6s 7
mph
1014.2mb 64f 65f
12:50am 2ft 10s 6s 7 9 mph 1014.2mb 64f 65f
Tue 07/29 11:50pm 1.6ft 8s 6s 4 7 mph 1013.8mb 64f 65f
10:50pm 2ft 10s 6s 7
mph
1013.5mb 64f 66f
9:50pm 2ft 10s 6s 4
mph
1013.3mb 64f 65f
8:50pm 2.5ft 9s 5s 2
mph
1012.9mb 65f 65f
7:50pm 2ft 9s 5s 7 9 mph 1012.7mb 65f 65f
6:50pm 2ft 10s 6s 13 16 mph 1012.3mb 65f 65f
5:50pm 2ft 10s 6s 11 13 mph 1011.6mb 65f 68f
4:50pm 1.6ft 10s 6s 9 11 mph 1011.2mb 66f 69f
3:50pm 1.6ft 10s 6s 11 13 mph 1010.6mb 66f 67f
2:50pm 1.6ft 9s 6s 11 13 mph 1010.1mb 66f 67f
1:50pm 1.6ft 10s 6s 4
mph
1009.7mb 65f 69f
12:50pm 1.6ft 10s 5s 4 7 mph 1009.2mb 65f 67f
11:50am 2ft 9s 5s 4 7 mph 1009mb 64f 65f
10:50am 2ft 7s 5s 11
mph
1008.8mb 64f 65f
9:50am 2ft 8s 5s 9 11 mph 1008.5mb 64f 64f
8:50am 2ft 8s 4s 11 13 mph 1007.9mb 64f 64f
7:50am 1.6ft 8s 4s 11 13 mph 1007.4mb 64f 64f
6:50am 1.6ft 3s 3s 18 22 mph 1005.8mb 64f 64f
5:50am 1.6ft 8s 4s 13 18 mph 1005.4mb 64f 64f
4:50am 1.6ft 8s 3s 13 16 mph 1004.3mb 64f 64f
3:50am 1.6ft 3s 3s 13 16 mph 1003.1mb 64f 65f
2:50am 1.6ft 5s 4s 13 16 mph 1002.4mb 64f 65f
1:50am 2ft 5s 4s 13 16 mph 1001.5mb 64f 66f
12:50am 2ft 5s 4s 9 11 mph 1000.6mb 64f 66f
Mon 07/28 11:50pm 2.5ft 6s 4s 9 11 mph 1000.5mb 64f 67f
10:50pm 2.5ft 6s 4s 13 16 mph 1000.3mb 64f 68f
9:50pm 2.5ft 7s 5s 18 22 mph 1000mb 64f 71f
8:50pm 2.5ft 7s 4s 11 16 mph 999.6mb 64f 70f
7:50pm 2ft 7s 4s 16 18 mph 998.6mb 64f 71f
6:50pm 1.6ft 7s 4s 16 20 mph 997.8mb 64f 72f
5:50pm 1.6ft 3s 4s 13 16 mph 997.8mb 64f 68f
4:50pm 1.6ft 4s 4s 11 13 mph 998mb 64f 67f
3:50pm 2.5ft 4s 4s 13 16 mph 998.3mb 65f 68f
2:50pm 2ft 4s 4s 16 18 mph 998.8mb 65f 67f
1:50pm 2.5ft 3s 4s 18 20 mph 999.1mb 65f 69f
12:50pm 2ft 4s 4s 16 18 mph 1000mb 65f 68f